createdAt,value
2022-11-10T00:00:35.130Z,101460.00
2022-11-10T00:03:06.060Z,101458.56
2022-11-10T00:05:33.118Z,101455.47
2022-11-10T00:08:06.542Z,101453.13
2022-11-10T00:10:33.374Z,101450.84
2022-11-10T00:13:01.813Z,101462.63
2022-11-10T00:15:47.568Z,101464.91
2022-11-10T00:18:14.015Z,101465.56
2022-11-10T00:20:40.600Z,101465.41
2022-11-10T00:23:06.953Z,101470.09
2022-11-10T00:25:34.026Z,101476.69
2022-11-10T00:28:00.496Z,101479.66
2022-11-10T00:30:27.258Z,101491.19
2022-11-10T00:32:53.651Z,101495.13
2022-11-10T00:35:20.031Z,101497.28
2022-11-10T00:37:48.909Z,101504.75
2022-11-10T00:40:15.351Z,101508.25
2022-11-10T00:42:41.814Z,101500.19
2022-11-10T00:45:09.895Z,101497.41
2022-11-10T00:47:36.235Z,101499.69
2022-11-10T00:50:02.625Z,101503.56
2022-11-10T00:52:28.963Z,101504.09
2022-11-10T00:54:55.305Z,101507.94
2022-11-10T00:57:21.653Z,101502.84
2022-11-10T00:59:48.119Z,101499.06
2022-11-10T01:02:14.471Z,101496.91
2022-11-10T01:04:40.805Z,101495.41
2022-11-10T01:07:07.196Z,101492.78
2022-11-10T01:09:33.605Z,101496.13
2022-11-10T01:11:59.948Z,101496.28
2022-11-10T01:14:26.321Z,101495.84
2022-11-10T01:16:52.675Z,101514.00
2022-11-10T01:19:19.050Z,101516.69
2022-11-10T01:21:45.513Z,101521.41
2022-11-10T01:24:11.934Z,101526.47
2022-11-10T01:26:38.331Z,101533.78
2022-11-10T01:29:04.705Z,101531.88
2022-11-10T01:31:31.061Z,101530.13
2022-11-10T01:33:59.067Z,101529.78
2022-11-10T01:36:25.495Z,101532.97
2022-11-10T01:38:51.845Z,101542.84
2022-11-10T01:41:18.244Z,101544.72
2022-11-10T01:43:44.640Z,101544.53
2022-11-10T01:46:13.308Z,101557.78
2022-11-10T01:48:49.678Z,101536.41
2022-11-10T01:51:29.090Z,101539.72
2022-11-10T01:54:06.182Z,101541.81
2022-11-10T01:56:37.555Z,101553.50
2022-11-10T01:59:09.481Z,101559.53
2022-11-10T02:01:35.843Z,101562.03
2022-11-10T02:04:05.274Z,101571.38
2022-11-10T02:06:37.161Z,101564.41
2022-11-10T02:09:03.898Z,101565.09
2022-11-10T02:11:31.644Z,101568.88
2022-11-10T02:13:59.524Z,101562.47
2022-11-10T02:16:26.028Z,101565.81
2022-11-10T02:18:52.974Z,101567.44
2022-11-10T02:21:20.786Z,101566.69
2022-11-10T02:23:53.236Z,101575.91
2022-11-10T02:26:25.122Z,101578.25
2022-11-10T02:28:51.616Z,101582.72
2022-11-10T02:31:17.976Z,101577.41
2022-11-10T02:33:44.444Z,101584.47
2022-11-10T02:36:10.938Z,101572.16
2022-11-10T02:38:37.488Z,101574.78
2022-11-10T02:41:04.046Z,101575.63
2022-11-10T02:43:30.807Z,101584.19
2022-11-10T02:45:57.199Z,101582.19
2022-11-10T02:48:23.593Z,101586.31
2022-11-10T02:50:49.968Z,101581.38
2022-11-10T02:53:16.359Z,101573.56
2022-11-10T02:55:42.736Z,101591.19
2022-11-10T02:58:09.154Z,101592.91
2022-11-10T03:00:35.517Z,101590.41
2022-11-10T03:03:02.908Z,101593.09
2022-11-10T03:05:30.090Z,101596.47
2022-11-10T03:07:58.764Z,101595.53
2022-11-10T03:10:26.004Z,101598.16
2022-11-10T03:12:57.864Z,101611.50
2022-11-10T03:15:24.637Z,101605.88
2022-11-10T03:17:51.141Z,101614.94
2022-11-10T03:20:18.218Z,101622.09
2022-11-10T03:22:44.750Z,101633.28
2022-11-10T03:25:12.044Z,101626.91
2022-11-10T03:27:38.738Z,101636.78
2022-11-10T03:30:06.427Z,101642.88
2022-11-10T03:32:33.674Z,101638.00
2022-11-10T03:35:00.111Z,101648.38
2022-11-10T03:37:26.507Z,101653.53
2022-11-10T03:39:52.913Z,101655.09
2022-11-10T03:42:19.287Z,101657.53
2022-11-10T03:44:45.648Z,101649.53
2022-11-10T03:47:12.040Z,101662.00
2022-11-10T03:49:38.436Z,101657.53
2022-11-10T03:52:04.853Z,101664.44
2022-11-10T03:54:31.233Z,101664.53
2022-11-10T03:56:57.580Z,101654.94
2022-11-10T03:59:23.937Z,101664.09
2022-11-10T04:01:50.385Z,101660.50
2022-11-10T04:04:35.148Z,101666.44
2022-11-10T04:07:20.122Z,101665.22
2022-11-10T04:09:46.392Z,101678.66
2022-11-10T04:12:31.304Z,101684.78
2022-11-10T04:15:15.837Z,101689.66
2022-11-10T04:17:48.653Z,101693.31
2022-11-10T04:20:15.345Z,101693.81
2022-11-10T04:23:00.116Z,101694.41
2022-11-10T04:25:26.415Z,101700.94
2022-11-10T04:27:52.752Z,101700.84
2022-11-10T04:30:19.125Z,101702.53
2022-11-10T04:32:45.476Z,101710.09
2022-11-10T04:35:11.833Z,101701.38
2022-11-10T04:37:38.223Z,101708.34
2022-11-10T04:40:05.171Z,101714.13
2022-11-10T04:42:31.520Z,101709.75
2022-11-10T04:44:57.851Z,101714.13
2022-11-10T04:47:24.243Z,101714.91
2022-11-10T04:49:50.926Z,101709.66
2022-11-10T04:52:17.278Z,101703.38
2022-11-10T04:54:43.692Z,101707.81
2022-11-10T04:57:10.034Z,101711.31
2022-11-10T04:59:36.406Z,101715.16
2022-11-10T05:02:02.835Z,101715.50
2022-11-10T05:04:29.218Z,101712.38
2022-11-10T05:06:55.602Z,101715.09
2022-11-10T05:09:22.206Z,101717.09
2022-11-10T05:11:48.576Z,101719.44
2022-11-10T05:14:14.941Z,101727.50
2022-11-10T05:16:41.280Z,101731.41
2022-11-10T05:19:08.194Z,101735.81
2022-11-10T05:21:34.620Z,101745.56
2022-11-10T05:24:01.026Z,101742.78
2022-11-10T05:26:27.376Z,101749.34
2022-11-10T05:28:53.735Z,101741.56
2022-11-10T05:31:20.113Z,101743.13
2022-11-10T05:33:46.538Z,101746.25
2022-11-10T05:36:12.954Z,101742.59
2022-11-10T05:38:43.472Z,101750.91
2022-11-10T05:41:10.903Z,101752.47
2022-11-10T05:43:37.299Z,101755.28
2022-11-10T05:46:03.887Z,101768.38
2022-11-10T05:48:30.348Z,101766.19
2022-11-10T05:50:56.687Z,101771.25
2022-11-10T05:53:23.528Z,101770.94
2022-11-10T05:55:50.196Z,101779.66
2022-11-10T05:58:16.582Z,101786.56
2022-11-10T06:00:43.108Z,101780.00
2022-11-10T06:03:15.453Z,101785.59
2022-11-10T06:05:41.955Z,101786.81
2022-11-10T06:08:09.069Z,101792.41
2022-11-10T06:10:36.696Z,101788.19
2022-11-10T06:13:03.869Z,101792.47
2022-11-10T06:15:30.659Z,101798.34
2022-11-10T06:17:57.948Z,101796.94
2022-11-10T06:20:25.521Z,101804.22
2022-11-10T06:23:06.171Z,101804.81
2022-11-10T06:25:36.005Z,101800.88
2022-11-10T06:28:03.011Z,101804.81
2022-11-10T06:30:30.735Z,101820.19
2022-11-10T06:32:57.545Z,101829.44
2022-11-10T06:35:25.266Z,101845.16
2022-11-10T06:37:57.702Z,101853.91
2022-11-10T06:40:24.084Z,101841.16
2022-11-10T06:42:50.442Z,101839.75
2022-11-10T06:45:16.960Z,101835.31
2022-11-10T06:47:43.358Z,101825.97
2022-11-10T06:50:10.098Z,101823.78
2022-11-10T06:52:36.609Z,101819.34
2022-11-10T06:55:03.311Z,101821.16
2022-11-10T06:57:29.684Z,101814.94
2022-11-10T06:59:56.073Z,101823.97
2022-11-10T07:02:22.529Z,101825.25
2022-11-10T07:04:50.664Z,101833.66
2022-11-10T07:07:17.398Z,101836.63
2022-11-10T07:09:43.816Z,101836.81
2022-11-10T07:12:10.193Z,101840.91
2022-11-10T07:14:36.525Z,101846.94
2022-11-10T07:17:02.915Z,101859.19
2022-11-10T07:19:29.388Z,101862.53
2022-11-10T07:21:55.819Z,101867.78
2022-11-10T07:24:22.177Z,101864.66
2022-11-10T07:26:48.610Z,101874.94
2022-11-10T07:29:15.051Z,101871.81
2022-11-10T07:31:41.425Z,101878.19
2022-11-10T07:34:07.779Z,101868.50
2022-11-10T07:36:34.245Z,101877.31
2022-11-10T07:39:00.710Z,101875.66
2022-11-10T07:41:27.045Z,101869.16
2022-11-10T07:43:53.396Z,101885.28
2022-11-10T07:46:19.745Z,101885.00
2022-11-10T07:48:46.111Z,101885.53
2022-11-10T07:51:12.468Z,101884.28
2022-11-10T07:53:39.811Z,101893.22
2022-11-10T07:56:06.513Z,101889.28
2022-11-10T07:58:34.056Z,101890.84
2022-11-10T08:01:00.431Z,101898.91
2022-11-10T08:03:26.857Z,101898.97
2022-11-10T08:05:53.272Z,101900.66
2022-11-10T08:08:19.654Z,101911.16
2022-11-10T08:10:46.020Z,101920.84
2022-11-10T08:13:13.152Z,101919.88
2022-11-10T08:15:40.277Z,101915.88
2022-11-10T08:18:21.512Z,101927.94
2022-11-10T08:20:48.807Z,101937.56
2022-11-10T08:23:16.024Z,101938.63
2022-11-10T08:25:42.488Z,101947.78
2022-11-10T08:28:16.904Z,101948.25
2022-11-10T08:30:44.838Z,101949.72
2022-11-10T08:33:13.565Z,101948.56
2022-11-10T08:35:42.545Z,101966.25
2022-11-10T08:38:13.600Z,101952.97
2022-11-10T08:40:41.180Z,101952.69
2022-11-10T08:43:08.208Z,101956.38
2022-11-10T08:45:38.536Z,101953.13
2022-11-10T08:48:07.449Z,101961.59
2022-11-10T08:50:34.480Z,101957.41
2022-11-10T08:53:05.719Z,101958.19
2022-11-10T08:55:32.490Z,101962.38
2022-11-10T08:58:04.029Z,101946.78
2022-11-10T09:00:31.922Z,101963.06
2022-11-10T09:03:11.345Z,101955.44
2022-11-10T09:05:37.725Z,101959.91
2022-11-10T09:08:04.584Z,101954.41
2022-11-10T09:10:41.046Z,101962.88
2022-11-10T09:13:07.516Z,101957.34
2022-11-10T09:15:35.100Z,101957.53
2022-11-10T09:18:03.831Z,101957.63
2022-11-10T09:20:32.534Z,101963.13
2022-11-10T09:23:17.695Z,101981.97
2022-11-10T09:25:52.242Z,101980.72
2022-11-10T09:28:20.096Z,101989.66
2022-11-10T09:30:49.608Z,102002.31
2022-11-10T09:33:16.564Z,102004.88
2022-11-10T09:35:43.428Z,102022.19
2022-11-10T09:38:11.765Z,102025.06
2022-11-10T09:41:02.727Z,102039.19
2022-11-10T09:43:46.812Z,102044.31
2022-11-10T09:46:18.302Z,102042.47
2022-11-10T09:48:52.757Z,102058.41
2022-11-10T09:51:22.027Z,102047.44
2022-11-10T09:53:56.920Z,102030.47
2022-11-10T09:56:32.183Z,102044.34
2022-11-10T09:58:59.079Z,102044.91
2022-11-10T10:01:34.534Z,102038.81
2022-11-10T10:04:12.252Z,102044.13
2022-11-10T10:07:10.262Z,102049.28
2022-11-10T10:09:52.869Z,102060.34
2022-11-10T10:12:25.362Z,102058.22
2022-11-10T10:15:25.681Z,102060.75
2022-11-10T10:18:04.945Z,102066.97
2022-11-10T10:20:58.632Z,102057.25
2022-11-10T10:24:07.831Z,102064.19
2022-11-10T10:26:30.419Z,102075.44
2022-11-10T10:29:18.392Z,102081.75
2022-11-10T10:31:48.872Z,102078.94
2022-11-10T10:34:18.736Z,102086.19
2022-11-10T10:36:45.520Z,102083.88
2022-11-10T10:39:41.902Z,102093.59
2022-11-10T10:42:33.328Z,102095.16
2022-11-10T10:45:15.125Z,102105.06
2022-11-10T10:47:41.982Z,102116.06
2022-11-10T10:50:32.330Z,102119.97
2022-11-10T10:53:18.663Z,102122.75
2022-11-10T10:55:59.820Z,102124.06
2022-11-10T10:58:26.584Z,102135.19
2022-11-10T11:01:01.491Z,102137.81
2022-11-10T11:03:49.902Z,102130.28
2022-11-10T11:06:19.004Z,102141.91
2022-11-10T11:09:15.083Z,102156.66
2022-11-10T11:11:43.980Z,102153.50
2022-11-10T11:14:25.559Z,102150.06
2022-11-10T11:17:01.986Z,102142.53
2022-11-10T11:19:33.531Z,102149.38
2022-11-10T11:22:23.347Z,102150.22
2022-11-10T11:25:14.248Z,102157.78
2022-11-10T11:27:59.443Z,102172.06
2022-11-10T11:30:36.251Z,102150.97
2022-11-10T11:33:21.672Z,102159.13
2022-11-10T11:36:17.266Z,102145.97
2022-11-10T11:38:53.787Z,102154.13
2022-11-10T11:41:57.294Z,102156.94
2022-11-10T11:45:04.605Z,102161.56
2022-11-10T11:47:36.919Z,102160.78
2022-11-10T11:50:06.243Z,102164.66
2022-11-10T11:52:50.721Z,102162.72
2022-11-10T11:55:26.389Z,102167.09
2022-11-10T11:58:17.333Z,102168.94
2022-11-10T12:01:21.712Z,102183.03
2022-11-10T12:04:06.739Z,102173.06
2022-11-10T12:06:49.025Z,102167.63
2022-11-10T12:09:58.371Z,102166.13
2022-11-10T12:13:05.780Z,102167.16
2022-11-10T12:15:53.742Z,102151.75
2022-11-10T12:18:37.365Z,102161.69
2022-11-10T12:21:18.833Z,102164.41
2022-11-10T12:24:09.766Z,102158.97
2022-11-10T12:27:00.826Z,102163.69
2022-11-10T12:29:48.510Z,102156.84
2022-11-10T12:32:33.118Z,102160.13
2022-11-10T12:35:07.749Z,102160.56
2022-11-10T12:37:40.779Z,102164.81
2022-11-10T12:40:16.154Z,102168.50
2022-11-10T12:42:46.944Z,102174.50
2022-11-10T12:45:24.052Z,102165.34
2022-11-10T12:47:52.188Z,102165.19
2022-11-10T12:50:56.185Z,102163.13
2022-11-10T12:53:37.948Z,102172.00
2022-11-10T12:56:15.750Z,102178.84
2022-11-10T12:58:42.236Z,102181.06
2022-11-10T13:01:20.388Z,102169.84
2022-11-10T13:03:56.517Z,102166.19
2022-11-10T13:06:25.424Z,102160.59
2022-11-10T13:08:51.936Z,102166.94
2022-11-10T13:11:18.227Z,102186.00
2022-11-10T13:13:59.086Z,102186.16
2022-11-10T13:16:41.279Z,102180.38
2022-11-10T13:19:09.206Z,102173.09
2022-11-10T13:21:50.895Z,102182.41
2022-11-10T13:24:42.509Z,102171.03
2022-11-10T13:27:29.938Z,102185.28
2022-11-10T13:29:57.752Z,102183.63
2022-11-10T13:32:29.281Z,102191.78
2022-11-10T13:35:30.612Z,102199.66
2022-11-10T13:37:57.478Z,102217.41
2022-11-10T13:40:23.805Z,102215.56
2022-11-10T13:42:59.320Z,102214.31
2022-11-10T13:45:32.688Z,102209.38
2022-11-10T13:48:24.806Z,102209.56
2022-11-10T13:51:12.810Z,102209.31
2022-11-10T13:54:04.223Z,102209.50
2022-11-10T13:56:55.513Z,102218.66
2022-11-10T13:59:31.425Z,102218.50
2022-11-10T14:02:36.276Z,102217.09
2022-11-10T14:05:05.616Z,102214.31
2022-11-10T14:07:42.967Z,102217.38
2022-11-10T14:10:26.660Z,102224.72
2022-11-10T14:13:00.766Z,102225.78
2022-11-10T14:15:44.143Z,102232.41
2022-11-10T14:18:22.489Z,102238.06
2022-11-10T14:20:56.367Z,102241.81
2022-11-10T14:23:33.417Z,102245.31
2022-11-10T14:26:03.460Z,102243.66
2022-11-10T14:28:33.133Z,102233.88
2022-11-10T14:31:00.065Z,102237.59
2022-11-10T14:33:27.417Z,102245.84
2022-11-10T14:35:57.956Z,102250.44
2022-11-10T14:38:27.526Z,102256.91
2022-11-10T14:40:57.181Z,102251.47
2022-11-10T14:43:37.763Z,102261.28
2022-11-10T14:46:06.805Z,102262.25
2022-11-10T14:48:36.770Z,102260.50
2022-11-10T14:51:12.925Z,102248.69
2022-11-10T14:53:46.480Z,102252.22
2022-11-10T14:56:21.099Z,102256.69
2022-11-10T14:58:49.821Z,102252.22
2022-11-10T15:01:33.678Z,102256.69
2022-11-10T15:04:02.415Z,102258.50
2022-11-10T15:06:30.136Z,102258.50
2022-11-10T15:08:57.116Z,102255.72
2022-11-10T15:12:19.448Z,102256.34
2022-11-10T15:14:47.001Z,102254.59
2022-11-10T15:17:15.952Z,102270.16
2022-11-10T15:19:45.081Z,102253.97
2022-11-10T15:22:23.626Z,102262.34
2022-11-10T15:24:51.588Z,102277.75
2022-11-10T15:27:28.034Z,102284.91
2022-11-10T15:29:56.499Z,102275.69
2022-11-10T15:32:29.199Z,102284.69
2022-11-10T15:35:08.525Z,102270.25
2022-11-10T15:37:34.866Z,102267.75
2022-11-10T15:40:33.971Z,102280.78
2022-11-10T15:43:12.784Z,102285.94
2022-11-10T15:45:39.487Z,102273.44
2022-11-10T15:48:12.394Z,102287.72
2022-11-10T15:50:40.094Z,102288.72
2022-11-10T15:53:13.357Z,102288.91
2022-11-10T15:55:42.098Z,102297.44
2022-11-10T15:58:17.710Z,102289.38
2022-11-10T16:00:44.177Z,102292.09
2022-11-10T16:03:16.612Z,102287.31
2022-11-10T16:05:43.001Z,102292.50
2022-11-10T16:08:14.312Z,102285.53
2022-11-10T16:10:52.493Z,102287.63
2022-11-10T16:13:24.063Z,102289.03
2022-11-10T16:15:50.980Z,102284.09
2022-11-10T16:18:23.382Z,102286.50
2022-11-10T16:20:51.383Z,102289.69
2022-11-10T16:23:18.727Z,102299.81
2022-11-10T16:25:47.011Z,102315.06
2022-11-10T16:28:17.921Z,102301.72
2022-11-10T16:30:45.723Z,102282.91
2022-11-10T16:33:16.858Z,102292.72
2022-11-10T16:35:44.176Z,102296.88
2022-11-10T16:38:18.486Z,102305.31
2022-11-10T16:40:48.780Z,102300.72
2022-11-10T16:43:18.708Z,102299.75
2022-11-10T16:45:48.680Z,102315.94
2022-11-10T16:48:18.160Z,102304.22
2022-11-10T16:50:46.091Z,102311.69
2022-11-10T16:53:17.206Z,102309.78
2022-11-10T16:55:44.737Z,102305.97
2022-11-10T16:58:11.783Z,102307.72
2022-11-10T17:00:39.264Z,102301.66
2022-11-10T17:03:12.790Z,102310.09
2022-11-10T17:05:39.879Z,102316.16
2022-11-10T17:08:07.027Z,102315.22
2022-11-10T17:10:33.408Z,102314.28
2022-11-10T17:12:59.769Z,102318.97
2022-11-10T17:15:26.262Z,102319.19
2022-11-10T17:17:55.591Z,102305.41
2022-11-10T17:20:28.559Z,102322.53
2022-11-10T17:22:55.316Z,102332.28
2022-11-10T17:25:26.805Z,102343.19
2022-11-10T17:27:53.659Z,102333.09
2022-11-10T17:30:20.741Z,102326.53
2022-11-10T17:33:06.120Z,102347.28
2022-11-10T17:35:40.289Z,102345.38
2022-11-10T17:38:11.338Z,102336.22
2022-11-10T17:40:38.044Z,102333.34
2022-11-10T17:43:04.424Z,102353.28
2022-11-10T17:45:30.756Z,102347.28
2022-11-10T17:47:57.145Z,102342.31
2022-11-10T17:50:24.348Z,102356.19
2022-11-10T17:52:50.782Z,102367.09
2022-11-10T17:55:21.677Z,102365.25
2022-11-10T17:57:48.696Z,102370.78
2022-11-10T18:00:16.936Z,102377.09
2022-11-10T18:02:44.666Z,102372.41
2022-11-10T18:05:16.245Z,102369.56
2022-11-10T18:07:43.234Z,102359.03
2022-11-10T18:10:12.792Z,102363.59
2022-11-10T18:12:40.594Z,102368.78
2022-11-10T18:15:09.065Z,102371.50
2022-11-10T18:17:35.398Z,102380.41
2022-11-10T18:20:01.786Z,102379.19
2022-11-10T18:22:28.150Z,102375.44
2022-11-10T18:24:54.488Z,102373.63
2022-11-10T18:27:20.872Z,102367.53
2022-11-10T18:29:47.471Z,102359.31
2022-11-10T18:32:14.255Z,102366.50
2022-11-10T18:34:40.615Z,102361.16
2022-11-10T18:37:07.360Z,102360.38
2022-11-10T18:39:33.786Z,102358.59
2022-11-10T18:42:00.187Z,102348.84
2022-11-10T18:44:26.846Z,102362.56
2022-11-10T18:46:53.230Z,102371.50
2022-11-10T18:49:20.629Z,102362.41
2022-11-10T18:51:47.018Z,102377.94
2022-11-10T18:54:13.387Z,102357.00
2022-11-10T18:56:39.796Z,102359.47
2022-11-10T18:59:06.169Z,102365.78
2022-11-10T19:01:32.692Z,102361.38
2022-11-10T19:03:59.253Z,102357.00
2022-11-10T19:06:25.678Z,102351.72
2022-11-10T19:08:52.060Z,102367.19
2022-11-10T19:11:20.040Z,102361.91
2022-11-10T19:13:46.591Z,102371.78
2022-11-10T19:16:15.630Z,102365.50
2022-11-10T19:18:43.216Z,102381.41
2022-11-10T19:21:16.068Z,102381.53
2022-11-10T19:23:43.132Z,102388.72
2022-11-10T19:26:10.618Z,102377.09
2022-11-10T19:28:38.275Z,102375.47
2022-11-10T19:31:11.280Z,102384.53
2022-11-10T19:33:39.737Z,102367.19
2022-11-10T19:36:09.012Z,102365.56
2022-11-10T19:38:36.313Z,102374.59
2022-11-10T19:41:05.239Z,102366.31
2022-11-10T19:43:31.850Z,102370.78
2022-11-10T19:46:08.626Z,102377.16
2022-11-10T19:48:34.975Z,102386.00
2022-11-10T19:51:02.872Z,102380.59
2022-11-10T19:53:30.086Z,102373.63
2022-11-10T19:56:01.851Z,102370.19
2022-11-10T19:58:28.244Z,102370.25
2022-11-10T20:00:55.513Z,102373.22
2022-11-10T20:03:22.794Z,102380.41
2022-11-10T20:05:58.685Z,102385.59
2022-11-10T20:08:25.231Z,102397.38
2022-11-10T20:10:51.678Z,102385.59
2022-11-10T20:13:18.053Z,102401.84
2022-11-10T20:15:44.495Z,102395.38
2022-11-10T20:18:11.778Z,102390.94
2022-11-10T20:20:39.080Z,102387.44
2022-11-10T20:23:07.760Z,102394.59
2022-11-10T20:25:35.199Z,102385.59
2022-11-10T20:28:05.874Z,102410.22
2022-11-10T20:30:37.231Z,102418.72
2022-11-10T20:33:05.272Z,102424.19
2022-11-10T20:35:32.035Z,102435.97
2022-11-10T20:37:58.387Z,102433.88
2022-11-10T20:40:43.332Z,102444.34
2022-11-10T20:43:11.721Z,102447.88
2022-11-10T20:45:39.119Z,102451.38
2022-11-10T20:48:05.509Z,102450.34
2022-11-10T20:50:31.988Z,102453.84
2022-11-10T20:52:58.555Z,102465.56
2022-11-10T20:55:51.729Z,102463.66
2022-11-10T20:58:11.508Z,102474.38
2022-11-10T21:00:42.239Z,102450.84
2022-11-10T21:03:08.625Z,102475.19
2022-11-10T21:05:35.004Z,102462.50
2022-11-10T21:08:01.404Z,102466.19
2022-11-10T21:10:27.807Z,102465.94
2022-11-10T21:12:54.558Z,102457.81
2022-11-10T21:15:21.418Z,102462.31
2022-11-10T21:17:47.863Z,102471.38
2022-11-10T21:20:14.697Z,102471.25
2022-11-10T21:22:41.127Z,102461.31
2022-11-10T21:25:07.801Z,102446.66
2022-11-10T21:27:34.178Z,102460.28
2022-11-10T21:30:00.605Z,102462.06
2022-11-10T21:32:27.013Z,102462.00
2022-11-10T21:34:53.412Z,102454.78
2022-11-10T21:37:19.821Z,102455.78
2022-11-10T21:39:46.218Z,102463.09
2022-11-10T21:42:12.596Z,102460.47
2022-11-10T21:44:38.982Z,102463.09
2022-11-10T21:47:05.479Z,102462.38
2022-11-10T21:49:32.733Z,102449.91
2022-11-10T21:51:59.142Z,102455.28
2022-11-10T21:54:25.505Z,102460.69
2022-11-10T21:56:52.162Z,102449.97
2022-11-10T21:59:19.208Z,102455.34
2022-11-10T22:01:45.657Z,102461.63
2022-11-10T22:04:12.129Z,102451.88
2022-11-10T22:06:57.153Z,102466.47
2022-11-10T22:09:43.513Z,102473.06
2022-11-10T22:12:31.907Z,102464.13
2022-11-10T22:15:16.687Z,102450.88
2022-11-10T22:18:01.567Z,102464.19
2022-11-10T22:20:27.926Z,102473.19
2022-11-10T22:22:54.266Z,102468.69
2022-11-10T22:25:20.663Z,102482.31
2022-11-10T22:27:47.771Z,102492.97
2022-11-10T22:30:14.271Z,102493.16
2022-11-10T22:32:40.669Z,102491.38
2022-11-10T22:35:07.506Z,102512.31
2022-11-10T22:37:33.894Z,102509.69
2022-11-10T22:40:19.075Z,102494.31
2022-11-10T22:43:04.261Z,102503.38
2022-11-10T22:45:31.212Z,102502.66
2022-11-10T22:48:16.256Z,102508.22
2022-11-10T22:50:42.677Z,102515.59
2022-11-10T22:53:09.059Z,102506.59
2022-11-10T22:55:35.475Z,102512.94
2022-11-10T22:58:01.809Z,102510.38
2022-11-10T23:00:28.222Z,102499.53
2022-11-10T23:02:54.585Z,102511.22
2022-11-10T23:05:21.080Z,102516.72
2022-11-10T23:07:48.461Z,102506.84
2022-11-10T23:10:14.882Z,102515.91
2022-11-10T23:12:41.233Z,102515.91
2022-11-10T23:15:08.162Z,102527.72
2022-11-10T23:17:34.491Z,102533.75
2022-11-10T23:20:00.817Z,102539.13
2022-11-10T23:22:28.027Z,102545.34
2022-11-10T23:24:57.292Z,102551.56
2022-11-10T23:27:23.952Z,102537.91
2022-11-10T23:29:51.753Z,102542.22
2022-11-10T23:32:18.121Z,102545.00
2022-11-10T23:34:44.450Z,102538.84
2022-11-10T23:37:10.832Z,102553.06
2022-11-10T23:39:37.199Z,102553.19
2022-11-10T23:42:03.571Z,102541.66
2022-11-10T23:44:29.901Z,102543.44
2022-11-10T23:46:56.250Z,102547.09
2022-11-10T23:49:22.681Z,102551.69
2022-11-10T23:51:48.995Z,102553.59
2022-11-10T23:54:15.333Z,102552.66
2022-11-10T23:56:41.783Z,102555.38
2022-11-10T23:59:08.120Z,102558.91
